Hlavní strana
METAR-TAF:

METAR-TAF

Letiště :

Uljanovsk, Rusko

zeměpisná šířka: 54-21N, zeměpisná délka: 048-23E, výška: 77 m

Aktuální stav počasí

Zpráva byla vytvořena před 1 hodinou a 10 minutami, v 17:00 UTC
Západní vítr 4 kt
Teplota 19°C
Vlhkost vzduchu 52%
Tlak 1021 hPa
Viditelnost: 8000 m

METAR: UWLW 251700Z 26002MPS 8000 NSC 19/09 Q1021 R02/CLRD60 NOSIG RMK QFE758

Čas: 21:10 (18:10 UTC)

Předpověď počasí

Zpráva byla vytvořena před 1 hodinou a 23 minutami, v 16:47 UTC
Předpověď platná od 25 v 18 UTC do 26 v 18 UTC
Západoseverozápadní vítr 6 kt
Viditelnost 10 km a více
Polojasno ve výšce 3300 ft
Změna
od 25 v 21 UTC do 25 v 23 UTC
Jihojihozápadní vítr 6 kt
Změna
od 26 v 04 UTC do 26 v 06 UTC
Západoseverozápadní vítr 6 kt

TAF: UWLW 251647Z 2518/2618 30003MPS 9999 SCT033 TX25/2612Z TN12/2601Z BECMG 2521/2523 20003MPS BECMG 2604/2606 30003MPS

Stav a předpovědi počasí z více než 4 000 letišť (zprávy METAR a TAF).

Červené a žluté tečky na mapě představují dostupné meteorologické stanice.

Když kurzor umístíte na tečku, zobrazí se název stanice.

Pak kliknutím zobrazíte stav a předpověď počasí.

Chcete-li změnit mapu, kliknutím na zelené tlačítko se znaménkem +mapu přiblížíte, kliknutím na zelené tlačítko se znaménkem – mapu oddálíte a kliknutím na zelené šipky přejdete na sousední mapy.


METAR-TAF: